Rios, Texas
Current Conditions -  °F | °C
As of 5:55 PM on Friday 28 Nov 2014 (Local Time) from KHBV Reporting Station
Clear Clear  
Wind Chill: 68°   Ceiling: Unl
Heat Index: 68°   Visibility: 10mi
Dew Point: 51°   Wind: 6mph
Humidity: 55%   Direction: 130°SE
Pressure: 30.13"   Gusts: NA
Location:  27.5358°N, 98.3937°W
Report Text: KHBV 282355Z AUTO 13005KT 10SM CLR 20/11 A3013 RMK AO2 T01980106
Loading
Personal Weather Stations






























Interactive Weather Map New forecast layout! Learn more

10-Day Weather Forecast

Advertisements
Track Severe Weather on mobile